sensor_id;sensor_type;location;lat;lon;timestamp;temperature;humidity
50556;DHT22;36508;52.512;13.450;2022-11-25T00:01:59;4.80;99.90
50556;DHT22;36508;52.512;13.450;2022-11-25T00:04:25;4.90;99.90
50556;DHT22;36508;52.512;13.450;2022-11-25T00:06:50;4.90;99.90
50556;DHT22;36508;52.512;13.450;2022-11-25T00:09:16;4.90;99.90
50556;DHT22;36508;52.512;13.450;2022-11-25T00:11:42;5.00;99.90
50556;DHT22;36508;52.512;13.450;2022-11-25T00:14:11;5.10;99.90
50556;DHT22;36508;52.512;13.450;2022-11-25T00:16:40;5.00;99.90
50556;DHT22;36508;52.512;13.450;2022-11-25T00:19:06;5.00;99.90
50556;DHT22;36508;52.512;13.450;2022-11-25T00:21:33;4.80;99.90
50556;DHT22;36508;52.512;13.450;2022-11-25T00:24:01;4.70;99.90
50556;DHT22;36508;52.512;13.450;2022-11-25T00:26:28;4.70;99.90
50556;DHT22;36508;52.512;13.450;2022-11-25T00:28:57;4.80;99.90
50556;DHT22;36508;52.512;13.450;2022-11-25T00:31:25;5.00;99.90
50556;DHT22;36508;52.512;13.450;2022-11-25T00:33:51;5.00;99.90
50556;DHT22;36508;52.512;13.450;2022-11-25T00:36:24;5.00;99.90
50556;DHT22;36508;52.512;13.450;2022-11-25T00:39:01;5.00;99.90
50556;DHT22;36508;52.512;13.450;2022-11-25T00:41:28;4.90;99.90
50556;DHT22;36508;52.512;13.450;2022-11-25T00:44:14;5.00;99.90
50556;DHT22;36508;52.512;13.450;2022-11-25T00:46:59;5.20;99.90
50556;DHT22;36508;52.512;13.450;2022-11-25T00:49:25;5.20;99.90
50556;DHT22;36508;52.512;13.450;2022-11-25T00:51:50;5.20;99.90
50556;DHT22;36508;52.512;13.450;2022-11-25T00:54:16;5.20;99.90
50556;DHT22;36508;52.512;13.450;2022-11-25T00:56:42;5.20;99.90
50556;DHT22;36508;52.512;13.450;2022-11-25T00:59:08;5.10;99.90
50556;DHT22;36508;52.512;13.450;2022-11-25T01:01:34;5.10;99.90
50556;DHT22;36508;52.512;13.450;2022-11-25T01:04:00;5.10;99.90
50556;DHT22;36508;52.512;13.450;2022-11-25T01:06:25;4.90;99.90
50556;DHT22;36508;52.512;13.450;2022-11-25T01:08:52;5.00;99.90
50556;DHT22;36508;52.512;13.450;2022-11-25T01:11:20;5.00;99.90
50556;DHT22;36508;52.512;13.450;2022-11-25T01:13:46;5.00;99.90
50556;DHT22;36508;52.512;13.450;2022-11-25T01:16:14;5.10;99.90
50556;DHT22;36508;52.512;13.450;2022-11-25T01:18:41;5.10;99.90
50556;DHT22;36508;52.512;13.450;2022-11-25T01:21:15;5.10;99.90
50556;DHT22;36508;52.512;13.450;2022-11-25T01:23:41;5.00;99.90
50556;DHT22;36508;52.512;13.450;2022-11-25T01:26:10;5.10;99.90
50556;DHT22;36508;52.512;13.450;2022-11-25T01:28:45;5.10;99.90
50556;DHT22;36508;52.512;13.450;2022-11-25T01:31:19;5.20;99.90
50556;DHT22;36508;52.512;13.450;2022-11-25T01:33:46;5.30;99.90
50556;DHT22;36508;52.512;13.450;2022-11-25T01:36:14;5.30;99.90
50556;DHT22;36508;52.512;13.450;2022-11-25T01:38:41;5.30;99.90
50556;DHT22;36508;52.512;13.450;2022-11-25T01:41:09;5.40;99.90
50556;DHT22;36508;52.512;13.450;2022-11-25T01:43:35;5.40;99.90
50556;DHT22;36508;52.512;13.450;2022-11-25T01:46:23;5.20;99.90
50556;DHT22;36508;52.512;13.450;2022-11-25T01:54:03;5.20;99.90
50556;DHT22;36508;52.512;13.450;2022-11-25T01:56:33;5.20;99.90
50556;DHT22;36508;52.512;13.450;2022-11-25T01:59:00;5.20;99.90
50556;DHT22;36508;52.512;13.450;2022-11-25T02:01:26;5.20;99.90
50556;DHT22;36508;52.512;13.450;2022-11-25T02:03:53;5.20;99.90
50556;DHT22;36508;52.512;13.450;2022-11-25T02:06:27;5.30;99.90
50556;DHT22;36508;52.512;13.450;2022-11-25T02:09:00;5.10;99.90
50556;DHT22;36508;52.512;13.450;2022-11-25T02:11:27;5.10;99.90
50556;DHT22;36508;52.512;13.450;2022-11-25T02:13:55;5.20;99.90
50556;DHT22;36508;52.512;13.450;2022-11-25T02:16:21;5.20;99.90
50556;DHT22;36508;52.512;13.450;2022-11-25T02:18:48;5.30;99.90
50556;DHT22;36508;52.512;13.450;2022-11-25T02:21:17;5.30;99.90
50556;DHT22;36508;52.512;13.450;2022-11-25T02:23:54;5.30;99.90
50556;DHT22;36508;52.512;13.450;2022-11-25T02:26:20;5.40;99.90
50556;DHT22;36508;52.512;13.450;2022-11-25T02:28:46;5.40;99.90
50556;DHT22;36508;52.512;13.450;2022-11-25T02:31:21;5.40;99.90
50556;DHT22;36508;52.512;13.450;2022-11-25T02:33:47;5.40;99.90
50556;DHT22;36508;52.512;13.450;2022-11-25T02:36:15;5.40;99.90
50556;DHT22;36508;52.512;13.450;2022-11-25T02:38:55;5.40;99.90
50556;DHT22;36508;52.512;13.450;2022-11-25T02:41:44;5.30;99.90
50556;DHT22;36508;52.512;13.450;2022-11-25T02:44:12;5.30;99.90
50556;DHT22;36508;52.512;13.450;2022-11-25T02:46:38;5.30;99.90
50556;DHT22;36508;52.512;13.450;2022-11-25T02:49:04;5.10;99.90
50556;DHT22;36508;52.512;13.450;2022-11-25T02:51:31;4.90;99.90
50556;DHT22;36508;52.512;13.450;2022-11-25T02:53:56;5.10;99.90
50556;DHT22;36508;52.512;13.450;2022-11-25T02:56:24;5.20;99.90
50556;DHT22;36508;52.512;13.450;2022-11-25T02:58:50;5.30;99.90
50556;DHT22;36508;52.512;13.450;2022-11-25T03:01:16;5.30;99.90
50556;DHT22;36508;52.512;13.450;2022-11-25T03:03:42;5.20;99.90
50556;DHT22;36508;52.512;13.450;2022-11-25T03:06:08;5.30;99.90
50556;DHT22;36508;52.512;13.450;2022-11-25T03:08:34;5.30;99.90
50556;DHT22;36508;52.512;13.450;2022-11-25T03:11:00;5.30;99.90
50556;DHT22;36508;52.512;13.450;2022-11-25T03:13:26;5.20;99.90
50556;DHT22;36508;52.512;13.450;2022-11-25T03:15:52;5.20;99.90
50556;DHT22;36508;52.512;13.450;2022-11-25T03:18:17;5.20;99.90
50556;DHT22;36508;52.512;13.450;2022-11-25T03:20:43;5.30;99.90
50556;DHT22;36508;52.512;13.450;2022-11-25T03:23:08;5.20;99.90
50556;DHT22;36508;52.512;13.450;2022-11-25T03:25:34;5.30;99.90
50556;DHT22;36508;52.512;13.450;2022-11-25T03:28:00;5.40;99.90
50556;DHT22;36508;52.512;13.450;2022-11-25T03:30:27;5.50;99.90
50556;DHT22;36508;52.512;13.450;2022-11-25T03:32:53;5.30;99.90
50556;DHT22;36508;52.512;13.450;2022-11-25T03:35:18;5.30;99.90
50556;DHT22;36508;52.512;13.450;2022-11-25T03:37:44;5.30;99.90
50556;DHT22;36508;52.512;13.450;2022-11-25T03:40:11;5.30;99.90
50556;DHT22;36508;52.512;13.450;2022-11-25T03:42:37;5.40;99.90
50556;DHT22;36508;52.512;13.450;2022-11-25T03:45:03;5.50;99.90
50556;DHT22;36508;52.512;13.450;2022-11-25T03:47:29;5.50;99.90
50556;DHT22;36508;52.512;13.450;2022-11-25T03:49:55;5.50;99.90
50556;DHT22;36508;52.512;13.450;2022-11-25T03:52:20;5.50;99.90
50556;DHT22;36508;52.512;13.450;2022-11-25T03:54:46;5.50;99.90
50556;DHT22;36508;52.512;13.450;2022-11-25T03:57:12;5.50;99.90
50556;DHT22;36508;52.512;13.450;2022-11-25T03:59:37;5.40;99.90
50556;DHT22;36508;52.512;13.450;2022-11-25T04:02:03;5.50;99.90
50556;DHT22;36508;52.512;13.450;2022-11-25T04:04:28;5.50;99.90
50556;DHT22;36508;52.512;13.450;2022-11-25T04:06:54;5.60;99.90
50556;DHT22;36508;52.512;13.450;2022-11-25T04:09:20;5.60;99.90
50556;DHT22;36508;52.512;13.450;2022-11-25T04:11:45;5.60;99.90
50556;DHT22;36508;52.512;13.450;2022-11-25T04:14:30;5.60;99.90
50556;DHT22;36508;52.512;13.450;2022-11-25T04:16:55;5.50;99.90
50556;DHT22;36508;52.512;13.450;2022-11-25T04:19:21;5.60;99.90
50556;DHT22;36508;52.512;13.450;2022-11-25T04:21:47;5.60;99.90
50556;DHT22;36508;52.512;13.450;2022-11-25T04:24:12;5.60;99.90
50556;DHT22;36508;52.512;13.450;2022-11-25T04:26:38;5.60;99.90
50556;DHT22;36508;52.512;13.450;2022-11-25T04:29:04;5.70;99.90
50556;DHT22;36508;52.512;13.450;2022-11-25T04:31:29;5.70;99.90
50556;DHT22;36508;52.512;13.450;2022-11-25T04:33:55;5.70;99.90
50556;DHT22;36508;52.512;13.450;2022-11-25T04:36:20;5.70;99.90
50556;DHT22;36508;52.512;13.450;2022-11-25T04:38:46;5.70;99.90
50556;DHT22;36508;52.512;13.450;2022-11-25T04:41:12;5.60;99.90
50556;DHT22;36508;52.512;13.450;2022-11-25T04:43:37;5.50;99.90
50556;DHT22;36508;52.512;13.450;2022-11-25T04:46:03;5.50;99.90
50556;DHT22;36508;52.512;13.450;2022-11-25T04:48:29;5.60;99.90
50556;DHT22;36508;52.512;13.450;2022-11-25T04:50:55;5.60;99.90
50556;DHT22;36508;52.512;13.450;2022-11-25T04:53:20;5.70;99.90
50556;DHT22;36508;52.512;13.450;2022-11-25T04:55:46;5.70;99.90
50556;DHT22;36508;52.512;13.450;2022-11-25T04:58:12;5.70;99.90
50556;DHT22;36508;52.512;13.450;2022-11-25T05:00:37;5.70;99.90
50556;DHT22;36508;52.512;13.450;2022-11-25T05:03:03;5.80;99.90
50556;DHT22;36508;52.512;13.450;2022-11-25T05:05:29;5.80;99.90
50556;DHT22;36508;52.512;13.450;2022-11-25T05:07:55;5.70;99.90
50556;DHT22;36508;52.512;13.450;2022-11-25T05:10:21;5.80;99.90
50556;DHT22;36508;52.512;13.450;2022-11-25T05:12:46;5.80;99.90
50556;DHT22;36508;52.512;13.450;2022-11-25T05:15:12;5.70;99.90
50556;DHT22;36508;52.512;13.450;2022-11-25T05:17:38;5.80;99.90
50556;DHT22;36508;52.512;13.450;2022-11-25T05:20:05;5.80;99.90
50556;DHT22;36508;52.512;13.450;2022-11-25T05:22:32;5.80;99.90
50556;DHT22;36508;52.512;13.450;2022-11-25T05:24:58;5.70;99.90
50556;DHT22;36508;52.512;13.450;2022-11-25T05:27:25;5.80;99.90
50556;DHT22;36508;52.512;13.450;2022-11-25T05:29:51;5.80;99.90
50556;DHT22;36508;52.512;13.450;2022-11-25T05:32:17;5.80;99.90
50556;DHT22;36508;52.512;13.450;2022-11-25T05:34:43;5.70;99.90
50556;DHT22;36508;52.512;13.450;2022-11-25T05:37:11;5.70;99.90
50556;DHT22;36508;52.512;13.450;2022-11-25T05:39:37;5.70;99.90
50556;DHT22;36508;52.512;13.450;2022-11-25T05:42:02;5.70;99.90
50556;DHT22;36508;52.512;13.450;2022-11-25T05:44:28;5.60;99.90
50556;DHT22;36508;52.512;13.450;2022-11-25T05:46:54;5.40;99.90
50556;DHT22;36508;52.512;13.450;2022-11-25T05:49:20;5.40;99.90
50556;DHT22;36508;52.512;13.450;2022-11-25T05:51:46;5.40;99.90
50556;DHT22;36508;52.512;13.450;2022-11-25T05:54:12;5.50;99.90
50556;DHT22;36508;52.512;13.450;2022-11-25T05:56:38;5.60;99.90
50556;DHT22;36508;52.512;13.450;2022-11-25T05:59:04;5.60;99.90
50556;DHT22;36508;52.512;13.450;2022-11-25T06:01:30;5.60;99.90
50556;DHT22;36508;52.512;13.450;2022-11-25T06:04:02;5.70;99.90
50556;DHT22;36508;52.512;13.450;2022-11-25T06:06:28;5.60;99.90
50556;DHT22;36508;52.512;13.450;2022-11-25T06:08:53;5.70;99.90
50556;DHT22;36508;52.512;13.450;2022-11-25T06:11:19;5.70;99.90
50556;DHT22;36508;52.512;13.450;2022-11-25T06:13:45;5.70;99.90
50556;DHT22;36508;52.512;13.450;2022-11-25T06:16:21;5.70;99.90
50556;DHT22;36508;52.512;13.450;2022-11-25T06:18:47;5.70;99.90
50556;DHT22;36508;52.512;13.450;2022-11-25T06:21:13;5.80;99.90
50556;DHT22;36508;52.512;13.450;2022-11-25T06:23:39;5.70;99.90
50556;DHT22;36508;52.512;13.450;2022-11-25T06:26:07;5.80;99.90
50556;DHT22;36508;52.512;13.450;2022-11-25T06:28:34;5.60;99.90
50556;DHT22;36508;52.512;13.450;2022-11-25T06:31:06;5.60;99.90
50556;DHT22;36508;52.512;13.450;2022-11-25T06:33:32;5.50;99.90
50556;DHT22;36508;52.512;13.450;2022-11-25T06:35:58;5.50;99.90
50556;DHT22;36508;52.512;13.450;2022-11-25T06:38:23;5.40;99.90
50556;DHT22;36508;52.512;13.450;2022-11-25T06:40:49;5.30;99.90
50556;DHT22;36508;52.512;13.450;2022-11-25T06:43:14;5.20;99.90
50556;DHT22;36508;52.512;13.450;2022-11-25T06:45:40;5.10;99.90
50556;DHT22;36508;52.512;13.450;2022-11-25T06:48:05;5.10;99.90
50556;DHT22;36508;52.512;13.450;2022-11-25T06:50:31;5.20;99.90
50556;DHT22;36508;52.512;13.450;2022-11-25T06:52:59;5.30;99.90
50556;DHT22;36508;52.512;13.450;2022-11-25T06:55:25;5.30;99.90
50556;DHT22;36508;52.512;13.450;2022-11-25T06:57:51;5.30;99.90
50556;DHT22;36508;52.512;13.450;2022-11-25T07:00:16;5.30;99.90
50556;DHT22;36508;52.512;13.450;2022-11-25T07:02:42;5.30;99.90
50556;DHT22;36508;52.512;13.450;2022-11-25T07:05:08;5.40;99.90
50556;DHT22;36508;52.512;13.450;2022-11-25T07:07:33;5.40;99.90
50556;DHT22;36508;52.512;13.450;2022-11-25T07:09:59;5.40;99.90
50556;DHT22;36508;52.512;13.450;2022-11-25T07:12:25;5.40;99.90
50556;DHT22;36508;52.512;13.450;2022-11-25T07:14:51;5.40;99.90
50556;DHT22;36508;52.512;13.450;2022-11-25T07:17:16;5.50;99.90
50556;DHT22;36508;52.512;13.450;2022-11-25T07:19:42;5.60;99.90
50556;DHT22;36508;52.512;13.450;2022-11-25T07:22:09;5.60;99.90
50556;DHT22;36508;52.512;13.450;2022-11-25T07:24:35;5.50;99.90
50556;DHT22;36508;52.512;13.450;2022-11-25T07:27:01;5.40;99.90
50556;DHT22;36508;52.512;13.450;2022-11-25T07:29:30;5.40;99.90
50556;DHT22;36508;52.512;13.450;2022-11-25T07:31:55;5.50;99.90
50556;DHT22;36508;52.512;13.450;2022-11-25T07:34:21;5.50;99.90
50556;DHT22;36508;52.512;13.450;2022-11-25T07:36:48;5.60;99.90
50556;DHT22;36508;52.512;13.450;2022-11-25T07:39:20;5.60;99.90
50556;DHT22;36508;52.512;13.450;2022-11-25T07:41:48;5.60;99.90
50556;DHT22;36508;52.512;13.450;2022-11-25T07:44:14;5.70;99.90
50556;DHT22;36508;52.512;13.450;2022-11-25T07:46:45;5.70;99.90
50556;DHT22;36508;52.512;13.450;2022-11-25T07:49:15;5.80;99.90
50556;DHT22;36508;52.512;13.450;2022-11-25T07:51:52;5.80;99.90
50556;DHT22;36508;52.512;13.450;2022-11-25T07:54:19;5.80;99.90
50556;DHT22;36508;52.512;13.450;2022-11-25T07:56:44;5.70;99.90
50556;DHT22;36508;52.512;13.450;2022-11-25T07:59:21;5.70;99.90
50556;DHT22;36508;52.512;13.450;2022-11-25T08:01:51;5.80;99.90
50556;DHT22;36508;52.512;13.450;2022-11-25T08:04:18;5.90;99.90
50556;DHT22;36508;52.512;13.450;2022-11-25T08:06:45;5.80;99.90
50556;DHT22;36508;52.512;13.450;2022-11-25T08:09:14;5.80;99.90
50556;DHT22;36508;52.512;13.450;2022-11-25T08:11:42;5.80;99.90
50556;DHT22;36508;52.512;13.450;2022-11-25T08:14:08;5.70;99.90
50556;DHT22;36508;52.512;13.450;2022-11-25T08:16:34;5.80;99.90
50556;DHT22;36508;52.512;13.450;2022-11-25T08:19:03;5.80;99.90
50556;DHT22;36508;52.512;13.450;2022-11-25T08:21:29;6.00;99.90
50556;DHT22;36508;52.512;13.450;2022-11-25T08:23:55;6.00;99.90
50556;DHT22;36508;52.512;13.450;2022-11-25T08:26:26;5.90;99.90
50556;DHT22;36508;52.512;13.450;2022-11-25T08:28:55;6.10;99.90
50556;DHT22;36508;52.512;13.450;2022-11-25T08:31:36;6.00;99.90
50556;DHT22;36508;52.512;13.450;2022-11-25T08:34:03;6.00;99.90
50556;DHT22;36508;52.512;13.450;2022-11-25T08:36:30;5.90;99.90
50556;DHT22;36508;52.512;13.450;2022-11-25T08:38:57;6.00;99.90
50556;DHT22;36508;52.512;13.450;2022-11-25T08:41:26;6.20;99.90
50556;DHT22;36508;52.512;13.450;2022-11-25T08:43:53;6.20;99.90
50556;DHT22;36508;52.512;13.450;2022-11-25T08:46:23;6.20;99.90
50556;DHT22;36508;52.512;13.450;2022-11-25T08:48:49;6.20;99.90
50556;DHT22;36508;52.512;13.450;2022-11-25T08:51:18;6.30;99.90
50556;DHT22;36508;52.512;13.450;2022-11-25T08:53:45;6.40;99.90
50556;DHT22;36508;52.512;13.450;2022-11-25T08:56:11;6.30;99.90
50556;DHT22;36508;52.512;13.450;2022-11-25T08:58:38;6.40;99.90
50556;DHT22;36508;52.512;13.450;2022-11-25T09:01:05;6.40;99.90
50556;DHT22;36508;52.512;13.450;2022-11-25T09:03:33;6.40;99.90
50556;DHT22;36508;52.512;13.450;2022-11-25T09:06:00;6.40;99.90
50556;DHT22;36508;52.512;13.450;2022-11-25T09:08:26;6.40;99.90
50556;DHT22;36508;52.512;13.450;2022-11-25T09:10:51;6.40;99.90
50556;DHT22;36508;52.512;13.450;2022-11-25T09:13:19;6.40;99.90
50556;DHT22;36508;52.512;13.450;2022-11-25T09:15:45;6.50;99.90
50556;DHT22;36508;52.512;13.450;2022-11-25T09:18:12;6.50;99.90
50556;DHT22;36508;52.512;13.450;2022-11-25T09:20:39;6.60;99.90
50556;DHT22;36508;52.512;13.450;2022-11-25T09:23:05;6.60;99.90
50556;DHT22;36508;52.512;13.450;2022-11-25T09:25:32;6.70;99.90
50556;DHT22;36508;52.512;13.450;2022-11-25T09:27:57;6.70;99.90
50556;DHT22;36508;52.512;13.450;2022-11-25T09:30:23;6.80;99.90
50556;DHT22;36508;52.512;13.450;2022-11-25T09:32:52;6.90;99.90
50556;DHT22;36508;52.512;13.450;2022-11-25T09:35:19;6.90;99.90
50556;DHT22;36508;52.512;13.450;2022-11-25T09:37:46;6.80;99.90
50556;DHT22;36508;52.512;13.450;2022-11-25T09:46:08;6.90;99.90
50556;DHT22;36508;52.512;13.450;2022-11-25T09:52:22;7.00;99.90
50556;DHT22;36508;52.512;13.450;2022-11-25T09:57:35;7.10;99.90
50556;DHT22;36508;52.512;13.450;2022-11-25T10:00:10;7.20;99.90
50556;DHT22;36508;52.512;13.450;2022-11-25T10:02:56;7.20;99.90
50556;DHT22;36508;52.512;13.450;2022-11-25T10:05:26;7.30;99.90
50556;DHT22;36508;52.512;13.450;2022-11-25T10:07:58;7.40;99.90
50556;DHT22;36508;52.512;13.450;2022-11-25T10:10:46;7.60;99.90
50556;DHT22;36508;52.512;13.450;2022-11-25T10:13:56;7.80;99.90
50556;DHT22;36508;52.512;13.450;2022-11-25T10:16:38;7.80;99.90
50556;DHT22;36508;52.512;13.450;2022-11-25T10:21:47;7.70;99.90
50556;DHT22;36508;52.512;13.450;2022-11-25T10:24:14;8.10;99.90
50556;DHT22;36508;52.512;13.450;2022-11-25T10:26:44;8.50;99.90
50556;DHT22;36508;52.512;13.450;2022-11-25T10:31:41;8.50;99.90
50556;DHT22;36508;52.512;13.450;2022-11-25T10:34:36;8.30;99.90
50556;DHT22;36508;52.512;13.450;2022-11-25T10:37:19;7.70;99.90
50556;DHT22;36508;52.512;13.450;2022-11-25T10:39:47;7.60;99.90
50556;DHT22;36508;52.512;13.450;2022-11-25T10:42:20;7.50;99.90
50556;DHT22;36508;52.512;13.450;2022-11-25T10:44:46;6.90;99.90
50556;DHT22;36508;52.512;13.450;2022-11-25T10:47:22;7.00;99.90
50556;DHT22;36508;52.512;13.450;2022-11-25T10:52:28;7.40;99.90
50556;DHT22;36508;52.512;13.450;2022-11-25T10:54:57;7.50;99.90
50556;DHT22;36508;52.512;13.450;2022-11-25T10:57:31;7.60;99.90
50556;DHT22;36508;52.512;13.450;2022-11-25T10:59:58;7.70;99.90
50556;DHT22;36508;52.512;13.450;2022-11-25T11:02:35;7.70;99.90
50556;DHT22;36508;52.512;13.450;2022-11-25T11:07:38;7.80;99.90
50556;DHT22;36508;52.512;13.450;2022-11-25T11:13:02;7.70;99.90
50556;DHT22;36508;52.512;13.450;2022-11-25T11:18:26;7.90;99.90
50556;DHT22;36508;52.512;13.450;2022-11-25T11:20:55;7.90;99.90
50556;DHT22;36508;52.512;13.450;2022-11-25T11:23:23;8.10;99.90
50556;DHT22;36508;52.512;13.450;2022-11-25T11:26:02;8.10;99.90
50556;DHT22;36508;52.512;13.450;2022-11-25T11:31:03;8.40;99.90
50556;DHT22;36508;52.512;13.450;2022-11-25T11:39:27;8.30;99.90
50556;DHT22;36508;52.512;13.450;2022-11-25T11:41:58;8.50;99.90
50556;DHT22;36508;52.512;13.450;2022-11-25T11:44:54;8.60;99.90
50556;DHT22;36508;52.512;13.450;2022-11-25T11:47:52;8.70;99.90
50556;DHT22;36508;52.512;13.450;2022-11-25T11:53:09;8.90;99.90
50556;DHT22;36508;52.512;13.450;2022-11-25T11:56:05;8.70;99.90
50556;DHT22;36508;52.512;13.450;2022-11-25T12:04:18;8.50;99.90
50556;DHT22;36508;52.512;13.450;2022-11-25T12:09:24;8.40;99.90
50556;DHT22;36508;52.512;13.450;2022-11-25T12:11:57;8.40;99.90
50556;DHT22;36508;52.512;13.450;2022-11-25T12:14:44;8.40;99.90
50556;DHT22;36508;52.512;13.450;2022-11-25T12:17:18;8.20;99.90
50556;DHT22;36508;52.512;13.450;2022-11-25T12:22:55;8.00;99.90
50556;DHT22;36508;52.512;13.450;2022-11-25T12:25:32;8.10;99.90
50556;DHT22;36508;52.512;13.450;2022-11-25T12:30:50;8.00;99.90
50556;DHT22;36508;52.512;13.450;2022-11-25T12:33:25;8.00;99.90
50556;DHT22;36508;52.512;13.450;2022-11-25T12:36:16;7.90;99.90
50556;DHT22;36508;52.512;13.450;2022-11-25T12:39:02;7.90;99.90
50556;DHT22;36508;52.512;13.450;2022-11-25T12:41:56;7.90;99.90
50556;DHT22;36508;52.512;13.450;2022-11-25T12:47:09;7.60;99.90
50556;DHT22;36508;52.512;13.450;2022-11-25T12:49:47;7.60;99.90
50556;DHT22;36508;52.512;13.450;2022-11-25T12:52:20;7.50;99.90
50556;DHT22;36508;52.512;13.450;2022-11-25T12:55:07;7.50;99.90
50556;DHT22;36508;52.512;13.450;2022-11-25T13:00:49;7.60;99.90
50556;DHT22;36508;52.512;13.450;2022-11-25T13:14:26;7.70;99.90
50556;DHT22;36508;52.512;13.450;2022-11-25T13:16:55;7.60;99.90
50556;DHT22;36508;52.512;13.450;2022-11-25T13:19:21;7.60;99.90
50556;DHT22;36508;52.512;13.450;2022-11-25T13:22:04;7.70;99.90
50556;DHT22;36508;52.512;13.450;2022-11-25T13:24:40;7.60;99.90
50556;DHT22;36508;52.512;13.450;2022-11-25T13:30:21;7.60;99.90
50556;DHT22;36508;52.512;13.450;2022-11-25T13:32:51;7.60;99.90
50556;DHT22;36508;52.512;13.450;2022-11-25T13:37:52;7.70;99.90
50556;DHT22;36508;52.512;13.450;2022-11-25T13:42:51;7.60;99.90
50556;DHT22;36508;52.512;13.450;2022-11-25T13:45:41;7.70;99.90
50556;DHT22;36508;52.512;13.450;2022-11-25T13:48:22;7.70;99.90
50556;DHT22;36508;52.512;13.450;2022-11-25T13:50:50;7.60;99.90
50556;DHT22;36508;52.512;13.450;2022-11-25T13:53:32;7.60;99.90
50556;DHT22;36508;52.512;13.450;2022-11-25T13:59:33;7.60;99.90
50556;DHT22;36508;52.512;13.450;2022-11-25T14:05:19;7.60;99.90
50556;DHT22;36508;52.512;13.450;2022-11-25T14:08:11;7.60;99.90
50556;DHT22;36508;52.512;13.450;2022-11-25T14:16:46;7.70;99.90
50556;DHT22;36508;52.512;13.450;2022-11-25T14:25:22;7.70;99.90
50556;DHT22;36508;52.512;13.450;2022-11-25T14:27:54;7.70;99.90
50556;DHT22;36508;52.512;13.450;2022-11-25T14:30:21;7.60;99.90
50556;DHT22;36508;52.512;13.450;2022-11-25T14:33:03;7.60;99.90
50556;DHT22;36508;52.512;13.450;2022-11-25T14:35:39;7.60;99.90
50556;DHT22;36508;52.512;13.450;2022-11-25T14:38:36;7.50;99.90
50556;DHT22;36508;52.512;13.450;2022-11-25T14:41:35;7.50;99.90
50556;DHT22;36508;52.512;13.450;2022-11-25T14:44:10;7.50;99.90
50556;DHT22;36508;52.512;13.450;2022-11-25T14:46:53;7.40;99.90
50556;DHT22;36508;52.512;13.450;2022-11-25T14:49:19;7.30;99.90
50556;DHT22;36508;52.512;13.450;2022-11-25T14:51:50;7.30;99.90
50556;DHT22;36508;52.512;13.450;2022-11-25T14:54:20;7.30;99.90
50556;DHT22;36508;52.512;13.450;2022-11-25T14:56:47;7.30;99.90
50556;DHT22;36508;52.512;13.450;2022-11-25T14:59:13;7.30;99.90
50556;DHT22;36508;52.512;13.450;2022-11-25T15:01:51;7.30;99.90
50556;DHT22;36508;52.512;13.450;2022-11-25T15:04:22;7.20;99.90
50556;DHT22;36508;52.512;13.450;2022-11-25T15:06:57;7.30;99.90
50556;DHT22;36508;52.512;13.450;2022-11-25T15:09:31;7.30;99.90
50556;DHT22;36508;52.512;13.450;2022-11-25T15:12:05;7.30;99.90
50556;DHT22;36508;52.512;13.450;2022-11-25T15:14:35;7.10;99.90
50556;DHT22;36508;52.512;13.450;2022-11-25T15:17:28;7.10;99.90
50556;DHT22;36508;52.512;13.450;2022-11-25T15:19:57;7.20;99.90
50556;DHT22;36508;52.512;13.450;2022-11-25T15:22:24;7.20;99.90
50556;DHT22;36508;52.512;13.450;2022-11-25T15:24:51;7.30;99.90
50556;DHT22;36508;52.512;13.450;2022-11-25T15:27:28;7.30;99.90
50556;DHT22;36508;52.512;13.450;2022-11-25T15:29:55;7.30;99.90
50556;DHT22;36508;52.512;13.450;2022-11-25T15:32:27;7.30;99.90
50556;DHT22;36508;52.512;13.450;2022-11-25T15:34:55;7.30;99.90
50556;DHT22;36508;52.512;13.450;2022-11-25T15:37:21;7.30;99.90
50556;DHT22;36508;52.512;13.450;2022-11-25T15:39:48;7.30;99.90
50556;DHT22;36508;52.512;13.450;2022-11-25T15:42:27;7.30;99.90
50556;DHT22;36508;52.512;13.450;2022-11-25T15:44:56;7.30;99.90
50556;DHT22;36508;52.512;13.450;2022-11-25T15:47:28;7.40;99.90
50556;DHT22;36508;52.512;13.450;2022-11-25T15:52:35;7.30;99.90
50556;DHT22;36508;52.512;13.450;2022-11-25T15:55:15;7.40;99.90
50556;DHT22;36508;52.512;13.450;2022-11-25T15:57:43;7.30;99.90
50556;DHT22;36508;52.512;13.450;2022-11-25T16:00:15;7.30;99.90
50556;DHT22;36508;52.512;13.450;2022-11-25T16:10:21;7.30;99.90
50556;DHT22;36508;52.512;13.450;2022-11-25T16:21:35;7.30;99.90
50556;DHT22;36508;52.512;13.450;2022-11-25T16:24:11;7.30;99.90
50556;DHT22;36508;52.512;13.450;2022-11-25T16:26:55;7.30;99.90
50556;DHT22;36508;52.512;13.450;2022-11-25T16:31:47;7.30;99.90
50556;DHT22;36508;52.512;13.450;2022-11-25T16:34:15;7.30;99.90
50556;DHT22;36508;52.512;13.450;2022-11-25T16:36:42;7.20;99.90
50556;DHT22;36508;52.512;13.450;2022-11-25T16:39:08;7.20;99.90
50556;DHT22;36508;52.512;13.450;2022-11-25T16:41:34;7.20;99.90
50556;DHT22;36508;52.512;13.450;2022-11-25T16:44:00;7.20;99.90
50556;DHT22;36508;52.512;13.450;2022-11-25T16:46:26;7.20;99.90
50556;DHT22;36508;52.512;13.450;2022-11-25T16:48:52;7.30;99.90
50556;DHT22;36508;52.512;13.450;2022-11-25T16:51:23;7.30;99.90
50556;DHT22;36508;52.512;13.450;2022-11-25T16:53:50;7.30;99.90
50556;DHT22;36508;52.512;13.450;2022-11-25T16:56:28;7.40;99.90
50556;DHT22;36508;52.512;13.450;2022-11-25T16:58:54;7.40;99.90
50556;DHT22;36508;52.512;13.450;2022-11-25T17:01:23;7.40;99.90
50556;DHT22;36508;52.512;13.450;2022-11-25T17:03:49;7.40;99.90
50556;DHT22;36508;52.512;13.450;2022-11-25T17:06:26;7.20;99.90
50556;DHT22;36508;52.512;13.450;2022-11-25T17:08:52;7.30;99.90
50556;DHT22;36508;52.512;13.450;2022-11-25T17:11:33;7.40;99.90
50556;DHT22;36508;52.512;13.450;2022-11-25T17:14:02;7.30;99.90
50556;DHT22;36508;52.512;13.450;2022-11-25T17:16:29;7.30;99.90
50556;DHT22;36508;52.512;13.450;2022-11-25T17:18:57;7.30;99.90
50556;DHT22;36508;52.512;13.450;2022-11-25T17:21:23;7.20;99.90
50556;DHT22;36508;52.512;13.450;2022-11-25T17:23:53;7.10;99.90
50556;DHT22;36508;52.512;13.450;2022-11-25T17:26:26;7.10;99.90
50556;DHT22;36508;52.512;13.450;2022-11-25T17:28:56;7.20;99.90
50556;DHT22;36508;52.512;13.450;2022-11-25T17:31:29;7.20;99.90
50556;DHT22;36508;52.512;13.450;2022-11-25T17:33:55;7.20;99.90
50556;DHT22;36508;52.512;13.450;2022-11-25T17:36:21;7.20;99.90
50556;DHT22;36508;52.512;13.450;2022-11-25T17:38:47;7.30;99.90
50556;DHT22;36508;52.512;13.450;2022-11-25T17:41:18;7.30;99.90
50556;DHT22;36508;52.512;13.450;2022-11-25T17:43:46;7.40;99.90
50556;DHT22;36508;52.512;13.450;2022-11-25T17:46:15;7.30;99.90
50556;DHT22;36508;52.512;13.450;2022-11-25T17:48:41;7.30;99.90
50556;DHT22;36508;52.512;13.450;2022-11-25T17:51:08;7.30;99.90